sensor_id;sensor_type;location;lat;lon;timestamp;temperature;humidity
15160;DHT22;7680;48.800;9.680;2022-08-21T00:01:18;15.80;99.90
15160;DHT22;7680;48.800;9.680;2022-08-21T00:03:53;15.70;99.90
15160;DHT22;7680;48.800;9.680;2022-08-21T00:06:28;15.70;99.90
15160;DHT22;7680;48.800;9.680;2022-08-21T00:09:05;15.70;99.90
15160;DHT22;7680;48.800;9.680;2022-08-21T00:11:40;15.70;99.90
15160;DHT22;7680;48.800;9.680;2022-08-21T00:14:15;15.60;99.90
15160;DHT22;7680;48.800;9.680;2022-08-21T00:16:51;15.70;99.90
15160;DHT22;7680;48.800;9.680;2022-08-21T00:19:31;15.70;99.90
15160;DHT22;7680;48.800;9.680;2022-08-21T00:22:05;15.50;99.90
15160;DHT22;7680;48.800;9.680;2022-08-21T00:24:39;15.50;99.90
15160;DHT22;7680;48.800;9.680;2022-08-21T00:27:13;15.50;99.90
15160;DHT22;7680;48.800;9.680;2022-08-21T00:29:48;15.50;99.90
15160;DHT22;7680;48.800;9.680;2022-08-21T00:32:25;15.50;99.90
15160;DHT22;7680;48.800;9.680;2022-08-21T00:35:00;15.50;99.90
15160;DHT22;7680;48.800;9.680;2022-08-21T00:37:34;15.50;99.90
15160;DHT22;7680;48.800;9.680;2022-08-21T00:40:11;15.50;99.90
15160;DHT22;7680;48.800;9.680;2022-08-21T00:42:51;15.50;99.90
15160;DHT22;7680;48.800;9.680;2022-08-21T00:45:25;15.50;99.90
15160;DHT22;7680;48.800;9.680;2022-08-21T00:48:02;15.50;99.90
15160;DHT22;7680;48.800;9.680;2022-08-21T00:50:42;15.40;99.90
15160;DHT22;7680;48.800;9.680;2022-08-21T00:53:17;15.40;99.90
15160;DHT22;7680;48.800;9.680;2022-08-21T00:55:53;15.40;99.90
15160;DHT22;7680;48.800;9.680;2022-08-21T00:58:29;15.40;99.90
15160;DHT22;7680;48.800;9.680;2022-08-21T01:01:06;15.40;99.90
15160;DHT22;7680;48.800;9.680;2022-08-21T01:03:42;15.30;99.90
15160;DHT22;7680;48.800;9.680;2022-08-21T01:06:17;15.30;99.90
15160;DHT22;7680;48.800;9.680;2022-08-21T01:08:51;15.30;99.90
15160;DHT22;7680;48.800;9.680;2022-08-21T01:11:25;15.20;99.90
15160;DHT22;7680;48.800;9.680;2022-08-21T01:14:00;15.20;99.90
15160;DHT22;7680;48.800;9.680;2022-08-21T01:16:34;15.20;99.90
15160;DHT22;7680;48.800;9.680;2022-08-21T01:19:11;15.20;99.90
15160;DHT22;7680;48.800;9.680;2022-08-21T01:21:47;15.10;99.90
15160;DHT22;7680;48.800;9.680;2022-08-21T01:24:21;15.10;99.90
15160;DHT22;7680;48.800;9.680;2022-08-21T01:26:57;15.10;99.90
15160;DHT22;7680;48.800;9.680;2022-08-21T01:29:36;15.10;99.90
15160;DHT22;7680;48.800;9.680;2022-08-21T01:32:15;15.10;99.90
15160;DHT22;7680;48.800;9.680;2022-08-21T01:34:51;15.00;99.90
15160;DHT22;7680;48.800;9.680;2022-08-21T01:37:27;15.00;99.90
15160;DHT22;7680;48.800;9.680;2022-08-21T01:40:01;14.90;99.90
15160;DHT22;7680;48.800;9.680;2022-08-21T01:42:39;14.80;99.90
15160;DHT22;7680;48.800;9.680;2022-08-21T01:45:13;14.80;99.90
15160;DHT22;7680;48.800;9.680;2022-08-21T01:47:48;14.80;99.90
15160;DHT22;7680;48.800;9.680;2022-08-21T01:50:23;14.90;99.90
15160;DHT22;7680;48.800;9.680;2022-08-21T01:52:58;14.90;99.90
15160;DHT22;7680;48.800;9.680;2022-08-21T01:55:32;14.80;99.90
15160;DHT22;7680;48.800;9.680;2022-08-21T01:58:06;14.70;99.90
15160;DHT22;7680;48.800;9.680;2022-08-21T02:00:40;14.70;99.90
15160;DHT22;7680;48.800;9.680;2022-08-21T02:03:14;14.60;99.90
15160;DHT22;7680;48.800;9.680;2022-08-21T02:06:07;14.60;99.90
15160;DHT22;7680;48.800;9.680;2022-08-21T02:08:48;14.60;99.90
15160;DHT22;7680;48.800;9.680;2022-08-21T02:11:23;14.60;99.90
15160;DHT22;7680;48.800;9.680;2022-08-21T02:13:57;14.60;99.90
15160;DHT22;7680;48.800;9.680;2022-08-21T02:16:32;14.50;99.90
15160;DHT22;7680;48.800;9.680;2022-08-21T02:19:07;14.50;99.90
15160;DHT22;7680;48.800;9.680;2022-08-21T02:21:42;14.50;99.90
15160;DHT22;7680;48.800;9.680;2022-08-21T02:24:18;14.50;99.90
15160;DHT22;7680;48.800;9.680;2022-08-21T02:26:53;14.50;99.90
15160;DHT22;7680;48.800;9.680;2022-08-21T02:29:27;14.40;99.90
15160;DHT22;7680;48.800;9.680;2022-08-21T02:32:01;14.40;99.90
15160;DHT22;7680;48.800;9.680;2022-08-21T02:34:35;14.30;99.90
15160;DHT22;7680;48.800;9.680;2022-08-21T02:37:09;14.40;99.90
15160;DHT22;7680;48.800;9.680;2022-08-21T02:39:46;14.40;99.90
15160;DHT22;7680;48.800;9.680;2022-08-21T02:42:20;14.40;99.90
15160;DHT22;7680;48.800;9.680;2022-08-21T02:44:54;14.40;99.90
15160;DHT22;7680;48.800;9.680;2022-08-21T02:47:28;14.40;99.90
15160;DHT22;7680;48.800;9.680;2022-08-21T02:50:03;14.40;99.90
15160;DHT22;7680;48.800;9.680;2022-08-21T02:52:37;14.40;99.90
15160;DHT22;7680;48.800;9.680;2022-08-21T02:55:13;14.40;99.90
15160;DHT22;7680;48.800;9.680;2022-08-21T02:57:48;14.30;99.90
15160;DHT22;7680;48.800;9.680;2022-08-21T03:00:25;14.40;99.90
15160;DHT22;7680;48.800;9.680;2022-08-21T03:03:01;14.20;99.90
15160;DHT22;7680;48.800;9.680;2022-08-21T03:05:36;14.20;99.90
15160;DHT22;7680;48.800;9.680;2022-08-21T03:08:13;14.10;99.90
15160;DHT22;7680;48.800;9.680;2022-08-21T03:10:50;14.10;99.90
15160;DHT22;7680;48.800;9.680;2022-08-21T03:13:25;14.10;99.90
15160;DHT22;7680;48.800;9.680;2022-08-21T03:15:59;14.00;99.90
15160;DHT22;7680;48.800;9.680;2022-08-21T03:18:35;13.90;99.90
15160;DHT22;7680;48.800;9.680;2022-08-21T03:21:10;13.80;99.90
15160;DHT22;7680;48.800;9.680;2022-08-21T03:23:45;13.80;99.90
15160;DHT22;7680;48.800;9.680;2022-08-21T03:26:20;13.70;99.90
15160;DHT22;7680;48.800;9.680;2022-08-21T03:28:58;13.70;99.90
15160;DHT22;7680;48.800;9.680;2022-08-21T03:31:33;13.60;99.90
15160;DHT22;7680;48.800;9.680;2022-08-21T03:34:06;13.60;99.90
15160;DHT22;7680;48.800;9.680;2022-08-21T03:36:40;13.70;99.90
15160;DHT22;7680;48.800;9.680;2022-08-21T03:39:15;13.60;99.90
15160;DHT22;7680;48.800;9.680;2022-08-21T03:41:50;13.70;99.90
15160;DHT22;7680;48.800;9.680;2022-08-21T03:44:26;13.70;99.90
15160;DHT22;7680;48.800;9.680;2022-08-21T03:47:02;13.80;99.90
15160;DHT22;7680;48.800;9.680;2022-08-21T03:49:37;13.80;99.90
15160;DHT22;7680;48.800;9.680;2022-08-21T03:52:11;13.70;99.90
15160;DHT22;7680;48.800;9.680;2022-08-21T03:54:45;13.70;99.90
15160;DHT22;7680;48.800;9.680;2022-08-21T03:57:20;13.70;99.90
15160;DHT22;7680;48.800;9.680;2022-08-21T03:59:54;13.80;99.90
15160;DHT22;7680;48.800;9.680;2022-08-21T04:02:28;13.70;99.90
15160;DHT22;7680;48.800;9.680;2022-08-21T04:05:03;13.70;99.90
15160;DHT22;7680;48.800;9.680;2022-08-21T04:07:38;13.70;99.90
15160;DHT22;7680;48.800;9.680;2022-08-21T04:10:12;13.70;99.90
15160;DHT22;7680;48.800;9.680;2022-08-21T04:12:48;13.70;99.90
15160;DHT22;7680;48.800;9.680;2022-08-21T04:15:24;13.60;99.90
15160;DHT22;7680;48.800;9.680;2022-08-21T04:17:59;13.50;99.90
15160;DHT22;7680;48.800;9.680;2022-08-21T04:20:33;13.40;99.90
15160;DHT22;7680;48.800;9.680;2022-08-21T04:23:07;13.40;99.90
15160;DHT22;7680;48.800;9.680;2022-08-21T04:25:42;13.40;99.90
15160;DHT22;7680;48.800;9.680;2022-08-21T04:28:17;13.40;99.90
15160;DHT22;7680;48.800;9.680;2022-08-21T04:30:54;13.30;99.90
15160;DHT22;7680;48.800;9.680;2022-08-21T04:33:28;13.20;99.90
15160;DHT22;7680;48.800;9.680;2022-08-21T04:36:03;13.10;99.90
15160;DHT22;7680;48.800;9.680;2022-08-21T04:38:38;13.00;99.90
15160;DHT22;7680;48.800;9.680;2022-08-21T04:41:15;13.00;99.90
15160;DHT22;7680;48.800;9.680;2022-08-21T04:44:00;13.10;99.90
15160;DHT22;7680;48.800;9.680;2022-08-21T04:46:34;13.10;99.90
15160;DHT22;7680;48.800;9.680;2022-08-21T04:49:08;13.20;99.90
15160;DHT22;7680;48.800;9.680;2022-08-21T04:51:42;13.10;99.90
15160;DHT22;7680;48.800;9.680;2022-08-21T04:54:18;13.10;99.90
15160;DHT22;7680;48.800;9.680;2022-08-21T04:56:57;13.00;99.90
15160;DHT22;7680;48.800;9.680;2022-08-21T04:59:39;13.00;99.90
15160;DHT22;7680;48.800;9.680;2022-08-21T05:02:14;13.10;99.90
15160;DHT22;7680;48.800;9.680;2022-08-21T05:04:51;13.20;99.90
15160;DHT22;7680;48.800;9.680;2022-08-21T05:07:28;13.30;99.90
15160;DHT22;7680;48.800;9.680;2022-08-21T05:10:14;13.40;99.90
15160;DHT22;7680;48.800;9.680;2022-08-21T05:12:49;13.40;99.90
15160;DHT22;7680;48.800;9.680;2022-08-21T05:15:24;13.40;99.90
15160;DHT22;7680;48.800;9.680;2022-08-21T05:17:58;13.50;99.90
15160;DHT22;7680;48.800;9.680;2022-08-21T05:20:32;13.50;99.90
15160;DHT22;7680;48.800;9.680;2022-08-21T05:23:07;13.40;99.90
15160;DHT22;7680;48.800;9.680;2022-08-21T05:25:42;13.40;99.90
15160;DHT22;7680;48.800;9.680;2022-08-21T05:28:16;13.50;99.90
15160;DHT22;7680;48.800;9.680;2022-08-21T05:30:52;13.50;99.90
15160;DHT22;7680;48.800;9.680;2022-08-21T05:33:26;13.40;99.90
15160;DHT22;7680;48.800;9.680;2022-08-21T05:36:01;13.50;99.90
15160;DHT22;7680;48.800;9.680;2022-08-21T05:38:35;13.70;99.90
15160;DHT22;7680;48.800;9.680;2022-08-21T05:41:10;13.80;99.90
15160;DHT22;7680;48.800;9.680;2022-08-21T05:43:44;13.90;99.90
15160;DHT22;7680;48.800;9.680;2022-08-21T05:46:20;14.00;99.90
15160;DHT22;7680;48.800;9.680;2022-08-21T05:48:55;14.20;99.90
15160;DHT22;7680;48.800;9.680;2022-08-21T05:51:30;14.50;99.90
15160;DHT22;7680;48.800;9.680;2022-08-21T05:54:04;14.80;99.90
15160;DHT22;7680;48.800;9.680;2022-08-21T05:56:38;14.80;99.90
15160;DHT22;7680;48.800;9.680;2022-08-21T05:59:16;15.00;99.90
15160;DHT22;7680;48.800;9.680;2022-08-21T06:01:53;15.40;99.90
15160;DHT22;7680;48.800;9.680;2022-08-21T06:04:28;15.80;99.90
15160;DHT22;7680;48.800;9.680;2022-08-21T06:07:02;16.30;99.90
15160;DHT22;7680;48.800;9.680;2022-08-21T06:09:37;16.60;99.90
15160;DHT22;7680;48.800;9.680;2022-08-21T06:12:12;16.80;99.90
15160;DHT22;7680;48.800;9.680;2022-08-21T06:14:47;17.10;99.90
15160;DHT22;7680;48.800;9.680;2022-08-21T06:17:29;17.40;99.90
15160;DHT22;7680;48.800;9.680;2022-08-21T06:20:04;17.70;99.90
15160;DHT22;7680;48.800;9.680;2022-08-21T06:22:39;18.00;99.90
15160;DHT22;7680;48.800;9.680;2022-08-21T06:25:14;18.30;99.90
15160;DHT22;7680;48.800;9.680;2022-08-21T06:27:49;18.30;99.90
15160;DHT22;7680;48.800;9.680;2022-08-21T06:30:23;18.90;99.90
15160;DHT22;7680;48.800;9.680;2022-08-21T06:33:00;19.30;99.90
15160;DHT22;7680;48.800;9.680;2022-08-21T06:35:35;19.20;99.90
15160;DHT22;7680;48.800;9.680;2022-08-21T06:38:12;19.40;99.90
15160;DHT22;7680;48.800;9.680;2022-08-21T06:40:47;19.70;99.90
15160;DHT22;7680;48.800;9.680;2022-08-21T06:43:23;20.10;99.90
15160;DHT22;7680;48.800;9.680;2022-08-21T06:46:10;20.30;99.90
15160;DHT22;7680;48.800;9.680;2022-08-21T06:48:46;20.40;99.90
15160;DHT22;7680;48.800;9.680;2022-08-21T06:51:25;20.70;99.90
15160;DHT22;7680;48.800;9.680;2022-08-21T06:54:00;20.80;99.90
15160;DHT22;7680;48.800;9.680;2022-08-21T06:56:35;21.00;99.90
15160;DHT22;7680;48.800;9.680;2022-08-21T06:59:10;21.20;99.90
15160;DHT22;7680;48.800;9.680;2022-08-21T07:01:45;21.20;99.90
15160;DHT22;7680;48.800;9.680;2022-08-21T07:04:21;21.60;99.90
15160;DHT22;7680;48.800;9.680;2022-08-21T07:06:55;21.40;99.90
15160;DHT22;7680;48.800;9.680;2022-08-21T07:09:30;21.50;99.90
15160;DHT22;7680;48.800;9.680;2022-08-21T07:12:05;21.50;99.90
15160;DHT22;7680;48.800;9.680;2022-08-21T07:14:39;21.70;99.90
15160;DHT22;7680;48.800;9.680;2022-08-21T07:17:14;21.80;99.90
15160;DHT22;7680;48.800;9.680;2022-08-21T07:19:50;22.10;99.90
15160;DHT22;7680;48.800;9.680;2022-08-21T07:22:24;22.30;99.90
15160;DHT22;7680;48.800;9.680;2022-08-21T07:24:59;22.60;99.90
15160;DHT22;7680;48.800;9.680;2022-08-21T07:27:33;22.80;99.90
15160;DHT22;7680;48.800;9.680;2022-08-21T07:30:08;22.80;99.90
15160;DHT22;7680;48.800;9.680;2022-08-21T07:32:43;23.00;99.90
15160;DHT22;7680;48.800;9.680;2022-08-21T07:35:20;23.40;99.90
15160;DHT22;7680;48.800;9.680;2022-08-21T07:37:54;23.50;99.90
15160;DHT22;7680;48.800;9.680;2022-08-21T07:40:29;23.20;99.90
15160;DHT22;7680;48.800;9.680;2022-08-21T07:43:03;23.60;99.90
15160;DHT22;7680;48.800;9.680;2022-08-21T07:45:37;23.60;99.90
15160;DHT22;7680;48.800;9.680;2022-08-21T07:48:12;23.40;99.90
15160;DHT22;7680;48.800;9.680;2022-08-21T07:50:47;23.80;99.90
15160;DHT22;7680;48.800;9.680;2022-08-21T07:53:22;24.00;99.90
15160;DHT22;7680;48.800;9.680;2022-08-21T07:55:57;23.90;99.90
15160;DHT22;7680;48.800;9.680;2022-08-21T07:58:32;24.00;99.90
15160;DHT22;7680;48.800;9.680;2022-08-21T08:01:06;23.90;99.90
15160;DHT22;7680;48.800;9.680;2022-08-21T08:03:40;24.10;99.30
15160;DHT22;7680;48.800;9.680;2022-08-21T08:06:16;24.10;99.90
15160;DHT22;7680;48.800;9.680;2022-08-21T08:08:51;24.30;99.20
15160;DHT22;7680;48.800;9.680;2022-08-21T08:11:26;24.50;97.80
15160;DHT22;7680;48.800;9.680;2022-08-21T08:14:00;24.20;98.50
15160;DHT22;7680;48.800;9.680;2022-08-21T08:16:35;24.10;97.70
15160;DHT22;7680;48.800;9.680;2022-08-21T08:19:10;24.30;98.30
15160;DHT22;7680;48.800;9.680;2022-08-21T08:21:46;24.40;98.10
15160;DHT22;7680;48.800;9.680;2022-08-21T08:24:20;24.20;99.50
15160;DHT22;7680;48.800;9.680;2022-08-21T08:26:55;24.10;98.60
15160;DHT22;7680;48.800;9.680;2022-08-21T08:29:29;24.40;97.90
15160;DHT22;7680;48.800;9.680;2022-08-21T08:32:05;24.80;97.10
15160;DHT22;7680;48.800;9.680;2022-08-21T08:34:42;24.90;95.60
15160;DHT22;7680;48.800;9.680;2022-08-21T08:37:19;24.60;95.80
15160;DHT22;7680;48.800;9.680;2022-08-21T08:40:00;24.70;97.90
15160;DHT22;7680;48.800;9.680;2022-08-21T08:42:36;25.00;96.20
15160;DHT22;7680;48.800;9.680;2022-08-21T08:45:14;25.00;95.50
15160;DHT22;7680;48.800;9.680;2022-08-21T08:47:58;25.10;95.70
15160;DHT22;7680;48.800;9.680;2022-08-21T08:50:41;25.30;95.80
15160;DHT22;7680;48.800;9.680;2022-08-21T08:53:22;25.30;96.00
15160;DHT22;7680;48.800;9.680;2022-08-21T08:56:01;25.20;96.20
15160;DHT22;7680;48.800;9.680;2022-08-21T08:58:39;25.40;95.50
15160;DHT22;7680;48.800;9.680;2022-08-21T09:01:18;25.60;94.70
15160;DHT22;7680;48.800;9.680;2022-08-21T09:03:59;25.40;95.50
15160;DHT22;7680;48.800;9.680;2022-08-21T09:06:43;25.70;95.80
15160;DHT22;7680;48.800;9.680;2022-08-21T09:09:38;26.00;95.30
15160;DHT22;7680;48.800;9.680;2022-08-21T09:12:28;26.00;95.80
15160;DHT22;7680;48.800;9.680;2022-08-21T09:15:14;25.90;95.30
15160;DHT22;7680;48.800;9.680;2022-08-21T09:21:13;26.00;95.40
15160;DHT22;7680;48.800;9.680;2022-08-21T09:23:56;26.00;94.50
15160;DHT22;7680;48.800;9.680;2022-08-21T09:26:44;25.80;94.10
15160;DHT22;7680;48.800;9.680;2022-08-21T09:29:24;25.90;94.50
15160;DHT22;7680;48.800;9.680;2022-08-21T09:32:02;26.10;93.50
15160;DHT22;7680;48.800;9.680;2022-08-21T09:34:37;26.30;92.70
15160;DHT22;7680;48.800;9.680;2022-08-21T09:37:17;25.90;93.60
15160;DHT22;7680;48.800;9.680;2022-08-21T09:39:51;25.90;93.80
15160;DHT22;7680;48.800;9.680;2022-08-21T09:42:29;25.80;93.40
15160;DHT22;7680;48.800;9.680;2022-08-21T09:45:09;26.00;93.60
15160;DHT22;7680;48.800;9.680;2022-08-21T09:47:45;26.20;92.70
15160;DHT22;7680;48.800;9.680;2022-08-21T09:50:22;26.30;92.00
15160;DHT22;7680;48.800;9.680;2022-08-21T09:53:01;26.00;92.20
15160;DHT22;7680;48.800;9.680;2022-08-21T09:55:48;26.40;91.40
15160;DHT22;7680;48.800;9.680;2022-08-21T09:58:48;26.20;91.50
15160;DHT22;7680;48.800;9.680;2022-08-21T10:01:25;26.20;91.40
15160;DHT22;7680;48.800;9.680;2022-08-21T10:04:03;26.40;91.30
15160;DHT22;7680;48.800;9.680;2022-08-21T10:06:38;26.20;90.70
15160;DHT22;7680;48.800;9.680;2022-08-21T10:09:15;26.20;90.80
15160;DHT22;7680;48.800;9.680;2022-08-21T10:12:00;26.30;90.70
15160;DHT22;7680;48.800;9.680;2022-08-21T10:14:58;26.20;90.10
15160;DHT22;7680;48.800;9.680;2022-08-21T10:17:44;26.10;89.80
15160;DHT22;7680;48.800;9.680;2022-08-21T10:20:30;26.00;90.90
15160;DHT22;7680;48.800;9.680;2022-08-21T10:23:22;26.00;90.10
15160;DHT22;7680;48.800;9.680;2022-08-21T10:26:09;26.30;88.20
15160;DHT22;7680;48.800;9.680;2022-08-21T10:28:52;26.50;85.10
15160;DHT22;7680;48.800;9.680;2022-08-21T10:31:40;26.30;85.80
15160;DHT22;7680;48.800;9.680;2022-08-21T10:34:28;26.40;87.80
15160;DHT22;7680;48.800;9.680;2022-08-21T10:37:18;26.60;87.90
15160;DHT22;7680;48.800;9.680;2022-08-21T10:40:06;26.70;84.20
15160;DHT22;7680;48.800;9.680;2022-08-21T10:42:52;26.70;83.60
15160;DHT22;7680;48.800;9.680;2022-08-21T10:45:42;26.80;84.50
15160;DHT22;7680;48.800;9.680;2022-08-21T10:48:27;26.70;85.00
15160;DHT22;7680;48.800;9.680;2022-08-21T10:51:09;26.70;83.80
15160;DHT22;7680;48.800;9.680;2022-08-21T10:53:53;26.80;84.50
15160;DHT22;7680;48.800;9.680;2022-08-21T10:56:36;26.60;82.40
15160;DHT22;7680;48.800;9.680;2022-08-21T10:59:26;26.60;83.20
15160;DHT22;7680;48.800;9.680;2022-08-21T11:02:15;26.70;82.00
15160;DHT22;7680;48.800;9.680;2022-08-21T11:04:56;26.50;84.60
15160;DHT22;7680;48.800;9.680;2022-08-21T11:07:38;26.50;82.70
15160;DHT22;7680;48.800;9.680;2022-08-21T11:10:23;26.40;82.20
15160;DHT22;7680;48.800;9.680;2022-08-21T11:13:03;26.30;82.30
15160;DHT22;7680;48.800;9.680;2022-08-21T11:15:45;26.40;80.10
15160;DHT22;7680;48.800;9.680;2022-08-21T11:18:26;26.30;81.40
15160;DHT22;7680;48.800;9.680;2022-08-21T11:21:14;26.50;82.20
15160;DHT22;7680;48.800;9.680;2022-08-21T11:23:57;26.70;80.80
15160;DHT22;7680;48.800;9.680;2022-08-21T11:26:41;26.00;80.70
15160;DHT22;7680;48.800;9.680;2022-08-21T11:29:26;26.00;82.20
15160;DHT22;7680;48.800;9.680;2022-08-21T11:32:26;26.20;83.50
15160;DHT22;7680;48.800;9.680;2022-08-21T11:35:22;26.50;79.50
15160;DHT22;7680;48.800;9.680;2022-08-21T11:38:10;26.30;79.50
15160;DHT22;7680;48.800;9.680;2022-08-21T11:41:03;26.00;79.00
15160;DHT22;7680;48.800;9.680;2022-08-21T11:43:48;25.80;81.00
15160;DHT22;7680;48.800;9.680;2022-08-21T11:46:35;25.70;80.70
15160;DHT22;7680;48.800;9.680;2022-08-21T11:49:29;25.60;80.70
15160;DHT22;7680;48.800;9.680;2022-08-21T11:52:13;25.50;79.20
15160;DHT22;7680;48.800;9.680;2022-08-21T11:54:57;25.50;78.90
15160;DHT22;7680;48.800;9.680;2022-08-21T11:57:39;25.70;79.80
15160;DHT22;7680;48.800;9.680;2022-08-21T12:00:20;25.80;80.90
15160;DHT22;7680;48.800;9.680;2022-08-21T12:03:07;26.00;82.30
15160;DHT22;7680;48.800;9.680;2022-08-21T12:05:52;25.80;81.50
15160;DHT22;7680;48.800;9.680;2022-08-21T12:08:29;25.90;79.90
15160;DHT22;7680;48.800;9.680;2022-08-21T12:11:08;25.80;81.50
15160;DHT22;7680;48.800;9.680;2022-08-21T12:13:55;25.70;80.00
15160;DHT22;7680;48.800;9.680;2022-08-21T12:16:34;25.80;80.80
15160;DHT22;7680;48.800;9.680;2022-08-21T12:19:11;25.80;80.70
15160;DHT22;7680;48.800;9.680;2022-08-21T12:21:51;26.20;78.60
15160;DHT22;7680;48.800;9.680;2022-08-21T12:24:35;26.20;79.80
15160;DHT22;7680;48.800;9.680;2022-08-21T12:27:28;26.20;78.40
15160;DHT22;7680;48.800;9.680;2022-08-21T12:30:18;25.90;80.90
15160;DHT22;7680;48.800;9.680;2022-08-21T12:33:05;25.80;78.40
15160;DHT22;7680;48.800;9.680;2022-08-21T12:36:03;25.60;77.80
15160;DHT22;7680;48.800;9.680;2022-08-21T12:38:54;25.30;80.70
15160;DHT22;7680;48.800;9.680;2022-08-21T12:41:43;25.40;79.30
15160;DHT22;7680;48.800;9.680;2022-08-21T12:44:38;25.70;78.20
15160;DHT22;7680;48.800;9.680;2022-08-21T12:47:22;25.70;77.90
15160;DHT22;7680;48.800;9.680;2022-08-21T12:50:05;25.60;77.00
15160;DHT22;7680;48.800;9.680;2022-08-21T12:52:51;25.80;80.30
15160;DHT22;7680;48.800;9.680;2022-08-21T12:55:34;25.90;78.10
15160;DHT22;7680;48.800;9.680;2022-08-21T12:58:17;25.70;77.50
15160;DHT22;7680;48.800;9.680;2022-08-21T13:00:56;25.60;77.40
15160;DHT22;7680;48.800;9.680;2022-08-21T13:03:36;25.60;77.10
15160;DHT22;7680;48.800;9.680;2022-08-21T13:06:14;25.70;79.60
15160;DHT22;7680;48.800;9.680;2022-08-21T13:08:54;26.10;76.10
15160;DHT22;7680;48.800;9.680;2022-08-21T13:11:34;26.20;75.70
15160;DHT22;7680;48.800;9.680;2022-08-21T13:14:25;26.20;77.00
15160;DHT22;7680;48.800;9.680;2022-08-21T13:17:19;25.90;76.40
15160;DHT22;7680;48.800;9.680;2022-08-21T13:19:59;25.90;76.80
15160;DHT22;7680;48.800;9.680;2022-08-21T13:22:40;25.80;75.10
15160;DHT22;7680;48.800;9.680;2022-08-21T13:25:18;25.80;74.70
15160;DHT22;7680;48.800;9.680;2022-08-21T13:28:00;25.70;75.50
15160;DHT22;7680;48.800;9.680;2022-08-21T13:30:46;25.80;76.00
15160;DHT22;7680;48.800;9.680;2022-08-21T13:33:26;25.90;76.40
15160;DHT22;7680;48.800;9.680;2022-08-21T13:36:10;26.10;76.00
15160;DHT22;7680;48.800;9.680;2022-08-21T13:38:48;26.30;72.60
15160;DHT22;7680;48.800;9.680;2022-08-21T13:41:28;26.30;72.90
15160;DHT22;7680;48.800;9.680;2022-08-21T13:44:13;26.20;72.30
15160;DHT22;7680;48.800;9.680;2022-08-21T13:47:01;26.20;70.70
15160;DHT22;7680;48.800;9.680;2022-08-21T13:49:42;25.90;70.90
15160;DHT22;7680;48.800;9.680;2022-08-21T13:52:26;25.90;70.30
15160;DHT22;7680;48.800;9.680;2022-08-21T13:55:12;25.70;71.80
15160;DHT22;7680;48.800;9.680;2022-08-21T13:57:58;25.80;73.70
15160;DHT22;7680;48.800;9.680;2022-08-21T14:00:35;26.10;72.20
15160;DHT22;7680;48.800;9.680;2022-08-21T14:03:27;26.20;71.20
15160;DHT22;7680;48.800;9.680;2022-08-21T14:06:12;26.00;70.40
15160;DHT22;7680;48.800;9.680;2022-08-21T14:08:52;25.90;68.10
15160;DHT22;7680;48.800;9.680;2022-08-21T14:11:33;25.90;69.50
15160;DHT22;7680;48.800;9.680;2022-08-21T14:14:16;26.00;68.20
15160;DHT22;7680;48.800;9.680;2022-08-21T14:16:56;25.90;68.40
15160;DHT22;7680;48.800;9.680;2022-08-21T14:19:52;26.00;67.50
15160;DHT22;7680;48.800;9.680;2022-08-21T14:22:30;26.10;69.90
15160;DHT22;7680;48.800;9.680;2022-08-21T14:25:13;26.10;68.10
15160;DHT22;7680;48.800;9.680;2022-08-21T14:28:18;26.20;70.00
15160;DHT22;7680;48.800;9.680;2022-08-21T14:31:11;26.30;70.60
15160;DHT22;7680;48.800;9.680;2022-08-21T14:33:48;26.20;70.50
15160;DHT22;7680;48.800;9.680;2022-08-21T14:36:23;26.10;69.40
15160;DHT22;7680;48.800;9.680;2022-08-21T14:39:00;26.10;69.80
15160;DHT22;7680;48.800;9.680;2022-08-21T14:41:36;26.20;70.40
15160;DHT22;7680;48.800;9.680;2022-08-21T14:44:11;26.20;70.10
15160;DHT22;7680;48.800;9.680;2022-08-21T14:46:47;26.20;69.80
15160;DHT22;7680;48.800;9.680;2022-08-21T14:49:28;26.30;67.70
15160;DHT22;7680;48.800;9.680;2022-08-21T14:52:04;26.10;67.60
15160;DHT22;7680;48.800;9.680;2022-08-21T14:54:41;26.10;70.10
15160;DHT22;7680;48.800;9.680;2022-08-21T14:57:16;26.10;68.80
15160;DHT22;7680;48.800;9.680;2022-08-21T14:59:51;26.30;66.90
15160;DHT22;7680;48.800;9.680;2022-08-21T15:02:30;26.20;67.60
15160;DHT22;7680;48.800;9.680;2022-08-21T15:05:06;26.10;68.80
15160;DHT22;7680;48.800;9.680;2022-08-21T15:07:41;26.10;68.00
15160;DHT22;7680;48.800;9.680;2022-08-21T15:10:18;26.00;67.10
15160;DHT22;7680;48.800;9.680;2022-08-21T15:12:53;26.00;68.10
15160;DHT22;7680;48.800;9.680;2022-08-21T15:15:28;26.00;67.10
15160;DHT22;7680;48.800;9.680;2022-08-21T15:18:04;26.00;65.20
15160;DHT22;7680;48.800;9.680;2022-08-21T15:20:39;26.00;66.30
15160;DHT22;7680;48.800;9.680;2022-08-21T15:23:14;26.00;68.00
15160;DHT22;7680;48.800;9.680;2022-08-21T15:25:52;26.00;67.30
15160;DHT22;7680;48.800;9.680;2022-08-21T15:28:30;25.90;65.60
15160;DHT22;7680;48.800;9.680;2022-08-21T15:31:04;25.80;67.40
15160;DHT22;7680;48.800;9.680;2022-08-21T15:33:39;25.70;67.70
15160;DHT22;7680;48.800;9.680;2022-08-21T15:36:13;25.90;70.90
15160;DHT22;7680;48.800;9.680;2022-08-21T15:38:48;25.90;68.00
15160;DHT22;7680;48.800;9.680;2022-08-21T15:41:24;25.90;67.90
15160;DHT22;7680;48.800;9.680;2022-08-21T15:43:59;25.90;66.90
15160;DHT22;7680;48.800;9.680;2022-08-21T15:46:33;25.80;68.00
15160;DHT22;7680;48.800;9.680;2022-08-21T15:49:07;25.70;69.00
15160;DHT22;7680;48.800;9.680;2022-08-21T15:51:42;25.70;68.20
15160;DHT22;7680;48.800;9.680;2022-08-21T15:54:16;25.60;67.60
15160;DHT22;7680;48.800;9.680;2022-08-21T15:56:51;25.70;67.90
15160;DHT22;7680;48.800;9.680;2022-08-21T15:59:25;25.60;68.30
15160;DHT22;7680;48.800;9.680;2022-08-21T16:02:14;25.60;67.80
15160;DHT22;7680;48.800;9.680;2022-08-21T16:04:49;25.70;67.50
15160;DHT22;7680;48.800;9.680;2022-08-21T16:07:24;25.60;68.80
15160;DHT22;7680;48.800;9.680;2022-08-21T16:09:58;25.60;69.90
15160;DHT22;7680;48.800;9.680;2022-08-21T16:12:38;25.70;68.60
15160;DHT22;7680;48.800;9.680;2022-08-21T16:15:17;25.70;69.00
15160;DHT22;7680;48.800;9.680;2022-08-21T16:17:53;25.80;69.80
15160;DHT22;7680;48.800;9.680;2022-08-21T16:20:28;25.60;68.90
15160;DHT22;7680;48.800;9.680;2022-08-21T16:23:03;25.50;69.50
15160;DHT22;7680;48.800;9.680;2022-08-21T16:25:38;25.40;70.00
15160;DHT22;7680;48.800;9.680;2022-08-21T16:28:18;25.40;69.60
15160;DHT22;7680;48.800;9.680;2022-08-21T16:30:54;25.30;70.20
15160;DHT22;7680;48.800;9.680;2022-08-21T16:33:32;25.30;69.60
15160;DHT22;7680;48.800;9.680;2022-08-21T16:36:08;25.20;69.30
15160;DHT22;7680;48.800;9.680;2022-08-21T16:38:43;25.20;69.60
15160;DHT22;7680;48.800;9.680;2022-08-21T16:41:20;25.10;70.50
15160;DHT22;7680;48.800;9.680;2022-08-21T16:43:56;25.00;72.30
15160;DHT22;7680;48.800;9.680;2022-08-21T16:46:33;25.00;72.60
15160;DHT22;7680;48.800;9.680;2022-08-21T16:49:08;24.80;74.60
15160;DHT22;7680;48.800;9.680;2022-08-21T16:51:42;24.70;76.40
15160;DHT22;7680;48.800;9.680;2022-08-21T16:54:16;24.60;76.50
15160;DHT22;7680;48.800;9.680;2022-08-21T16:56:51;24.60;76.40
15160;DHT22;7680;48.800;9.680;2022-08-21T16:59:27;24.60;74.20